createdAt,value
2018-05-13T00:00:18.501Z,1011.87
2018-05-13T00:01:18.442Z,1011.88
2018-05-13T00:02:18.486Z,1011.8
2018-05-13T00:03:18.648Z,1011.82
2018-05-13T00:04:18.324Z,1011.82
2018-05-13T00:05:18.587Z,1011.87
2018-05-13T00:06:18.490Z,1011.92
2018-05-13T00:07:18.378Z,1012.02
2018-05-13T00:08:18.495Z,1012.14
2018-05-13T00:09:18.390Z,1012.26
2018-05-13T00:10:18.453Z,1012.31
2018-05-13T00:11:18.589Z,1012.38
2018-05-13T00:12:18.372Z,1012.36
2018-05-13T00:13:18.324Z,1012.33
2018-05-13T00:14:18.492Z,1012.32
2018-05-13T00:15:18.384Z,1012.34
2018-05-13T00:16:18.349Z,1012.32
2018-05-13T00:17:18.458Z,1012.4
2018-05-13T00:18:18.492Z,1012.45
2018-05-13T00:19:18.494Z,1012.45
2018-05-13T00:20:18.523Z,1012.43
2018-05-13T00:21:18.398Z,1012.44
2018-05-13T00:22:18.316Z,1012.41
2018-05-13T00:23:18.344Z,1012.42
2018-05-13T00:24:18.471Z,1012.41
2018-05-13T00:25:18.399Z,1012.38
2018-05-13T00:26:18.365Z,1012.39
2018-05-13T00:27:18.500Z,1012.36
2018-05-13T00:28:18.341Z,1012.36
2018-05-13T00:29:18.518Z,1012.32
2018-05-13T00:30:18.475Z,1012.32
2018-05-13T00:31:18.296Z,1012.27
2018-05-13T00:32:18.371Z,1012.26
2018-05-13T00:33:18.521Z,1012.25
2018-05-13T00:34:18.472Z,1012.21
2018-05-13T00:35:18.461Z,1012.18
2018-05-13T00:36:18.409Z,1012.14
2018-05-13T00:37:18.570Z,1012.12
2018-05-13T00:38:18.440Z,1012.15
2018-05-13T00:39:18.428Z,1012.11
2018-05-13T00:40:18.404Z,1012.14
2018-05-13T00:41:18.489Z,1012.13
2018-05-13T00:42:18.303Z,1012.11
2018-05-13T00:43:18.448Z,1012.15
2018-05-13T00:44:18.352Z,1012.12
2018-05-13T00:45:18.629Z,1012.1
2018-05-13T00:46:18.439Z,1012.08
2018-05-13T00:47:18.479Z,1012.06
2018-05-13T00:48:18.404Z,1012.03
2018-05-13T00:49:18.362Z,1012.05
2018-05-13T00:50:18.504Z,1012.05
2018-05-13T00:51:18.301Z,1011.99
2018-05-13T00:52:18.529Z,1011.97
2018-05-13T00:53:18.407Z,1011.93
2018-05-13T00:54:18.472Z,1011.94
2018-05-13T00:55:18.307Z,1011.91
2018-05-13T00:56:18.494Z,1011.87
2018-05-13T00:57:18.358Z,1011.86
2018-05-13T00:58:18.510Z,1011.82
2018-05-13T00:59:18.284Z,1011.78
2018-05-13T01:00:41.281Z,1011.8
2018-05-13T01:01:18.428Z,1011.8
2018-05-13T01:02:18.405Z,1011.82
2018-05-13T01:03:18.496Z,1011.81
2018-05-13T01:04:18.366Z,1011.81
2018-05-13T01:05:18.431Z,1011.81
2018-05-13T01:06:18.678Z,1011.79
2018-05-13T01:07:18.363Z,1011.8
2018-05-13T01:08:18.422Z,1011.78
2018-05-13T01:09:18.327Z,1011.74
2018-05-13T01:10:18.454Z,1011.78
2018-05-13T01:11:18.360Z,1011.75
2018-05-13T01:12:18.510Z,1011.76
2018-05-13T01:13:18.657Z,1011.83
2018-05-13T01:14:18.342Z,1011.83
2018-05-13T01:15:18.504Z,1011.87
2018-05-13T01:16:18.312Z,1011.87
2018-05-13T01:17:18.439Z,1011.79
2018-05-13T01:18:18.518Z,1011.83
2018-05-13T01:19:18.650Z,1011.78
2018-05-13T01:20:18.431Z,1011.78
2018-05-13T01:21:18.464Z,1011.84
2018-05-13T01:22:18.459Z,1011.85
2018-05-13T01:23:18.340Z,1011.86
2018-05-13T01:24:18.392Z,1011.85
2018-05-13T01:25:18.468Z,1011.86
2018-05-13T01:26:18.452Z,1011.86
2018-05-13T01:27:18.408Z,1011.88
2018-05-13T01:28:18.404Z,1011.86
2018-05-13T01:29:18.790Z,1011.88
2018-05-13T01:30:18.446Z,1011.9
2018-05-13T01:31:18.328Z,1011.94
2018-05-13T01:32:18.533Z,1011.94
2018-05-13T01:33:18.474Z,1011.93
2018-05-13T01:34:18.323Z,1011.93
2018-05-13T01:35:18.302Z,1011.93
2018-05-13T01:36:18.343Z,1011.94
2018-05-13T01:37:18.455Z,1011.91
2018-05-13T01:38:18.322Z,1011.9
2018-05-13T01:39:18.300Z,1011.91
2018-05-13T01:40:18.427Z,1011.88
2018-05-13T01:41:18.381Z,1011.92
2018-05-13T01:42:18.366Z,1011.92
2018-05-13T01:43:18.478Z,1011.94
2018-05-13T01:44:18.287Z,1011.95
2018-05-13T01:45:18.496Z,1011.98
2018-05-13T01:46:18.499Z,1011.95
2018-05-13T01:47:18.408Z,1011.95
2018-05-13T01:48:18.387Z,1011.92
2018-05-13T01:49:18.623Z,1011.93
2018-05-13T01:50:18.368Z,1011.92
2018-05-13T01:51:18.453Z,1011.97
2018-05-13T01:52:18.441Z,1011.98
2018-05-13T01:53:18.295Z,1012.03
2018-05-13T01:54:18.352Z,1012.14
2018-05-13T01:55:18.352Z,1012.19
2018-05-13T01:56:18.476Z,1012.35
2018-05-13T01:57:18.469Z,1012.63
2018-05-13T01:58:18.332Z,1012.75
2018-05-13T01:59:18.463Z,1012.77
2018-05-13T02:00:18.447Z,1012.76
2018-05-13T02:01:18.341Z,1012.91
2018-05-13T02:02:18.292Z,1012.95
2018-05-13T02:03:18.318Z,1012.95
2018-05-13T02:04:18.506Z,1012.99
2018-05-13T02:05:18.312Z,1013
2018-05-13T02:06:18.414Z,1013.03
2018-05-13T02:07:18.462Z,1013.07
2018-05-13T02:08:18.357Z,1013.13
2018-05-13T02:09:18.523Z,1013.12
2018-05-13T02:10:18.470Z,1013.12
2018-05-13T02:11:18.266Z,1013.14
2018-05-13T02:12:18.484Z,1013.13
2018-05-13T02:13:18.319Z,1013.11
2018-05-13T02:14:18.367Z,1013.11
2018-05-13T02:15:18.521Z,1013.14
2018-05-13T02:16:18.293Z,1013.08
2018-05-13T02:17:18.347Z,1013.11
2018-05-13T02:18:18.485Z,1013.09
2018-05-13T02:19:18.431Z,1013.11
2018-05-13T02:20:18.359Z,1013.06
2018-05-13T02:21:18.441Z,1013.04
2018-05-13T02:22:18.374Z,1013.02
2018-05-13T02:23:18.426Z,1013.02
2018-05-13T02:24:18.346Z,1013.04
2018-05-13T02:25:18.596Z,1013.03
2018-05-13T02:26:18.499Z,1013.04
2018-05-13T02:27:18.440Z,1013.06
2018-05-13T02:28:18.414Z,1013.04
2018-05-13T02:29:18.330Z,1012.99
2018-05-13T02:30:18.404Z,1012.94
2018-05-13T02:31:18.306Z,1012.96
2018-05-13T02:32:18.273Z,1012.95
2018-05-13T02:33:18.482Z,1012.92
2018-05-13T02:34:18.314Z,1012.91
2018-05-13T02:35:18.513Z,1012.89
2018-05-13T02:36:18.515Z,1012.87
2018-05-13T02:37:18.349Z,1012.89
2018-05-13T02:38:18.302Z,1012.87
2018-05-13T02:39:18.364Z,1012.87
2018-05-13T02:40:18.299Z,1012.81
2018-05-13T02:41:18.281Z,1012.78
2018-05-13T02:42:18.412Z,1012.76
2018-05-13T02:43:18.401Z,1012.77
2018-05-13T02:44:18.435Z,1012.79
2018-05-13T02:45:18.488Z,1012.77
2018-05-13T02:46:18.293Z,1012.79
2018-05-13T02:47:18.218Z,1012.79
2018-05-13T02:48:18.431Z,1012.77
2018-05-13T02:49:18.607Z,1012.72
2018-05-13T02:50:18.361Z,1012.74
2018-05-13T02:51:18.389Z,1012.7
2018-05-13T02:52:18.325Z,1012.67
2018-05-13T02:53:18.335Z,1012.66
2018-05-13T02:54:18.463Z,1012.63
2018-05-13T02:55:18.365Z,1012.6
2018-05-13T02:56:18.293Z,1012.61
2018-05-13T02:57:18.500Z,1012.52
2018-05-13T02:58:18.507Z,1012.5
2018-05-13T02:59:18.716Z,1012.43
2018-05-13T03:00:18.535Z,1012.47
2018-05-13T03:01:18.473Z,1012.51
2018-05-13T03:02:18.364Z,1012.53
2018-05-13T03:03:18.434Z,1012.54
2018-05-13T03:04:18.246Z,1012.56
2018-05-13T03:05:18.381Z,1012.63
2018-05-13T03:06:18.429Z,1012.6
2018-05-13T03:07:18.489Z,1012.55
2018-05-13T03:08:18.375Z,1012.54
2018-05-13T03:09:18.485Z,1012.57
2018-05-13T03:10:18.663Z,1012.55
2018-05-13T03:11:18.431Z,1012.54
2018-05-13T03:12:18.252Z,1012.54
2018-05-13T03:13:18.455Z,1012.56
2018-05-13T03:14:18.318Z,1012.54
2018-05-13T03:15:18.498Z,1012.58
2018-05-13T03:16:18.511Z,1012.55
2018-05-13T03:17:18.408Z,1012.46
2018-05-13T03:18:18.412Z,1012.46
2018-05-13T03:19:18.703Z,1012.46
2018-05-13T03:20:18.612Z,1012.44
2018-05-13T03:21:18.242Z,1012.49
2018-05-13T03:22:18.466Z,1012.5
2018-05-13T03:23:18.405Z,1012.47
2018-05-13T03:24:18.383Z,1012.49
2018-05-13T03:25:18.401Z,1012.51
2018-05-13T03:26:18.476Z,1012.46
2018-05-13T03:27:18.523Z,1012.51
2018-05-13T03:28:18.490Z,1012.51
2018-05-13T03:29:18.493Z,1012.56
2018-05-13T03:30:18.399Z,1012.57
2018-05-13T03:31:18.377Z,1012.56
2018-05-13T03:32:18.295Z,1012.58
2018-05-13T03:33:18.483Z,1012.57
2018-05-13T03:34:18.461Z,1012.56
2018-05-13T03:35:18.306Z,1012.58
2018-05-13T03:36:18.360Z,1012.53
2018-05-13T03:37:18.444Z,1012.52
2018-05-13T03:38:18.434Z,1012.53
2018-05-13T03:39:18.260Z,1012.54
2018-05-13T03:40:18.466Z,1012.53
2018-05-13T03:41:18.315Z,1012.53
2018-05-13T03:42:18.381Z,1012.56
2018-05-13T03:43:18.261Z,1012.5
2018-05-13T03:44:18.390Z,1012.49
2018-05-13T03:45:18.361Z,1012.52
2018-05-13T03:46:18.469Z,1012.57
2018-05-13T03:47:18.330Z,1012.53
2018-05-13T03:48:18.421Z,1012.49
2018-05-13T03:49:18.330Z,1012.55
2018-05-13T03:50:18.232Z,1012.54
2018-05-13T03:51:18.342Z,1012.54
2018-05-13T03:52:18.570Z,1012.5
2018-05-13T03:53:18.316Z,1012.55
2018-05-13T03:54:18.374Z,1012.57
2018-05-13T03:55:18.431Z,1012.56
2018-05-13T03:56:18.808Z,1012.56
2018-05-13T03:57:18.368Z,1012.57
2018-05-13T03:58:18.406Z,1012.54
2018-05-13T03:59:18.317Z,1012.52
2018-05-13T04:00:18.256Z,1012.55
2018-05-13T04:01:18.304Z,1012.55
2018-05-13T04:02:18.300Z,1012.55
2018-05-13T04:03:18.387Z,1012.61
2018-05-13T04:04:18.689Z,1012.58
2018-05-13T04:05:18.236Z,1012.59
2018-05-13T04:06:18.461Z,1012.58
2018-05-13T04:07:18.634Z,1012.55
2018-05-13T04:08:18.438Z,1012.61
2018-05-13T04:09:18.434Z,1012.61
2018-05-13T04:10:18.420Z,1012.58
2018-05-13T04:11:18.452Z,1012.59
2018-05-13T04:12:18.473Z,1012.58
2018-05-13T04:13:18.286Z,1012.56
2018-05-13T04:14:18.359Z,1012.56
2018-05-13T04:15:18.310Z,1012.54
2018-05-13T04:16:18.601Z,1012.52
2018-05-13T04:17:18.377Z,1012.51
2018-05-13T04:18:18.290Z,1012.55
2018-05-13T04:19:18.221Z,1012.57
2018-05-13T04:20:18.461Z,1012.55
2018-05-13T04:21:18.306Z,1012.58
2018-05-13T04:22:18.244Z,1012.59
2018-05-13T04:23:18.299Z,1012.58
2018-05-13T04:24:18.340Z,1012.62
2018-05-13T04:25:18.527Z,1012.6
2018-05-13T04:26:18.479Z,1012.58
2018-05-13T04:27:18.275Z,1012.6
2018-05-13T04:28:18.334Z,1012.55
2018-05-13T04:29:18.463Z,1012.61
2018-05-13T04:30:18.457Z,1012.6
2018-05-13T04:31:18.414Z,1012.56
2018-05-13T04:32:18.501Z,1012.55
2018-05-13T04:33:18.271Z,1012.56
2018-05-13T04:34:18.572Z,1012.58
2018-05-13T04:35:18.444Z,1012.61
2018-05-13T04:36:18.460Z,1012.64
2018-05-13T04:37:18.259Z,1012.63
2018-05-13T04:38:18.460Z,1012.63
2018-05-13T04:39:18.845Z,1012.6
2018-05-13T04:40:18.373Z,1012.57
2018-05-13T04:41:18.400Z,1012.59
2018-05-13T04:42:18.445Z,1012.62
2018-05-13T04:43:18.367Z,1012.57
2018-05-13T04:44:18.723Z,1012.55
2018-05-13T04:45:18.426Z,1012.6
2018-05-13T04:46:18.166Z,1012.58
2018-05-13T04:47:18.413Z,1012.59
2018-05-13T04:48:18.320Z,1012.57
2018-05-13T04:49:18.636Z,1012.55
2018-05-13T04:50:18.372Z,1012.51
2018-05-13T04:51:18.433Z,1012.56
2018-05-13T04:52:18.441Z,1012.54
2018-05-13T04:53:18.257Z,1012.57
2018-05-13T04:54:18.662Z,1012.58
2018-05-13T04:55:18.262Z,1012.56
2018-05-13T04:56:18.278Z,1012.57
2018-05-13T04:57:18.448Z,1012.56
2018-05-13T04:58:18.396Z,1012.55
2018-05-13T04:59:18.515Z,1012.53
2018-05-13T05:00:18.205Z,1012.56
2018-05-13T05:01:18.412Z,1012.56
2018-05-13T05:02:18.385Z,1012.55
2018-05-13T05:03:18.753Z,1012.56
2018-05-13T05:04:18.169Z,1012.58
2018-05-13T05:05:18.338Z,1012.59
2018-05-13T05:06:18.242Z,1012.61
2018-05-13T05:07:18.454Z,1012.57
2018-05-13T05:08:18.299Z,1012.59
2018-05-13T05:09:18.382Z,1012.62
2018-05-13T05:10:18.399Z,1012.62
2018-05-13T05:11:18.391Z,1012.63
2018-05-13T05:12:18.266Z,1012.61
2018-05-13T05:13:28.317Z,1012.62
2018-05-13T05:14:18.283Z,1012.59
2018-05-13T05:15:18.529Z,1012.6
2018-05-13T05:16:18.227Z,1012.64
2018-05-13T05:17:18.415Z,1012.6
2018-05-13T05:18:18.157Z,1012.67
2018-05-13T05:19:18.437Z,1012.72
2018-05-13T05:20:18.443Z,1012.67
2018-05-13T05:21:18.339Z,1012.7
2018-05-13T05:22:18.405Z,1012.7
2018-05-13T05:23:18.312Z,1012.73
2018-05-13T05:24:18.397Z,1012.71
2018-05-13T05:25:18.397Z,1012.71
2018-05-13T05:26:18.303Z,1012.73
2018-05-13T05:27:18.190Z,1012.71
2018-05-13T05:28:18.348Z,1012.75
2018-05-13T05:29:18.294Z,1012.71
2018-05-13T05:30:18.315Z,1012.75
2018-05-13T05:31:18.540Z,1012.76
2018-05-13T05:32:18.268Z,1012.79
2018-05-13T05:33:18.420Z,1012.76
2018-05-13T05:34:18.304Z,1012.76
2018-05-13T05:35:18.610Z,1012.8
2018-05-13T05:36:18.357Z,1012.81
2018-05-13T05:37:18.267Z,1012.85
2018-05-13T05:38:18.156Z,1012.84
2018-05-13T05:39:18.385Z,1012.84
2018-05-13T05:40:18.263Z,1012.89
2018-05-13T05:41:18.494Z,1012.92
2018-05-13T05:42:18.304Z,1012.92
2018-05-13T05:43:18.334Z,1012.91
2018-05-13T05:44:18.216Z,1012.9
2018-05-13T05:45:18.432Z,1012.9
2018-05-13T05:46:18.412Z,1012.93
2018-05-13T05:47:18.270Z,1012.92
2018-05-13T05:48:18.608Z,1012.91
2018-05-13T05:49:18.316Z,1012.95
2018-05-13T05:50:18.359Z,1012.94
2018-05-13T05:51:18.285Z,1012.97
2018-05-13T05:52:18.362Z,1012.98
2018-05-13T05:53:18.322Z,1012.98
2018-05-13T05:54:18.249Z,1013
2018-05-13T05:55:18.344Z,1013.03
2018-05-13T05:56:18.235Z,1013.01
2018-05-13T05:57:18.262Z,1012.99
2018-05-13T05:58:18.297Z,1012.98
2018-05-13T05:59:18.338Z,1012.99
2018-05-13T06:00:18.274Z,1013.02
2018-05-13T06:01:18.367Z,1012.99
2018-05-13T06:02:18.394Z,1012.94
2018-05-13T06:03:18.685Z,1012.97
2018-05-13T06:04:18.150Z,1012.97
2018-05-13T06:05:18.151Z,1012.98
2018-05-13T06:06:18.334Z,1012.98
2018-05-13T06:07:18.401Z,1012.99
2018-05-13T06:08:18.379Z,1012.96
2018-05-13T06:09:18.436Z,1012.97
2018-05-13T06:10:18.249Z,1012.99
2018-05-13T06:11:18.540Z,1013.01
2018-05-13T06:12:18.436Z,1013.02
2018-05-13T06:13:18.571Z,1013.03
2018-05-13T06:14:18.115Z,1012.99
2018-05-13T06:15:18.510Z,1013.02
2018-05-13T06:16:18.239Z,1013.01
2018-05-13T06:17:18.372Z,1013.01
2018-05-13T06:18:18.185Z,1013.02
2018-05-13T06:19:18.289Z,1013.02
2018-05-13T06:20:18.347Z,1013.02
2018-05-13T06:21:18.329Z,1012.98
2018-05-13T06:22:18.336Z,1012.98
2018-05-13T06:23:18.211Z,1013.06
2018-05-13T06:24:18.460Z,1012.97
2018-05-13T06:25:18.446Z,1012.96
2018-05-13T06:26:18.372Z,1012.95
2018-05-13T06:27:18.141Z,1012.96
2018-05-13T06:28:18.439Z,1012.98
2018-05-13T06:29:18.471Z,1012.96
2018-05-13T06:30:18.328Z,1012.97
2018-05-13T06:31:18.372Z,1012.98
2018-05-13T06:32:18.239Z,1013.01
2018-05-13T06:33:18.555Z,1013
2018-05-13T06:34:18.562Z,1013.01
2018-05-13T06:35:18.203Z,1012.98
2018-05-13T06:36:18.220Z,1012.99
2018-05-13T06:37:18.500Z,1013.03
2018-05-13T06:38:18.261Z,1012.97
2018-05-13T06:39:18.476Z,1012.95
2018-05-13T06:40:19.070Z,1012.95
2018-05-13T06:41:18.193Z,1012.93
2018-05-13T06:42:18.335Z,1012.91
2018-05-13T06:43:18.268Z,1012.85
2018-05-13T06:44:18.263Z,1012.89
2018-05-13T06:45:18.712Z,1012.84
2018-05-13T06:46:18.252Z,1012.85
2018-05-13T06:47:18.391Z,1012.88
2018-05-13T06:48:18.299Z,1012.89
2018-05-13T06:49:18.351Z,1012.87
2018-05-13T06:50:18.212Z,1012.84
2018-05-13T06:51:18.522Z,1012.83
2018-05-13T06:52:18.391Z,1012.83
2018-05-13T06:53:18.413Z,1012.84
2018-05-13T06:54:18.334Z,1012.81
2018-05-13T06:55:18.535Z,1012.85
2018-05-13T06:56:18.318Z,1012.83
2018-05-13T06:57:18.442Z,1012.85
2018-05-13T06:58:18.402Z,1012.87
2018-05-13T06:59:18.197Z,1012.87
2018-05-13T07:00:18.414Z,1012.86
2018-05-13T07:01:18.251Z,1012.86
2018-05-13T07:02:18.252Z,1012.87
2018-05-13T07:03:18.374Z,1012.87
2018-05-13T07:04:18.379Z,1012.9
2018-05-13T07:05:18.373Z,1012.85
2018-05-13T07:06:18.417Z,1012.88
2018-05-13T07:07:18.353Z,1012.92
2018-05-13T07:08:18.212Z,1012.85
2018-05-13T07:09:18.362Z,1012.88
2018-05-13T07:10:18.543Z,1012.89
2018-05-13T07:11:18.341Z,1012.89
2018-05-13T07:12:18.345Z,1012.84
2018-05-13T07:13:18.277Z,1012.87
2018-05-13T07:14:18.105Z,1012.83
2018-05-13T07:15:18.439Z,1012.82
2018-05-13T07:16:18.426Z,1012.86
2018-05-13T07:17:18.292Z,1012.86
2018-05-13T07:18:18.157Z,1012.84
2018-05-13T07:19:18.375Z,1012.88
2018-05-13T07:20:18.405Z,1012.91
2018-05-13T07:21:18.317Z,1012.92
2018-05-13T07:22:18.276Z,1012.89
2018-05-13T07:23:18.334Z,1012.93
2018-05-13T07:24:18.361Z,1012.96
2018-05-13T07:25:18.320Z,1012.93
2018-05-13T07:26:18.312Z,1012.97
2018-05-13T07:27:18.485Z,1012.94
2018-05-13T07:28:18.256Z,1012.96
2018-05-13T07:29:18.604Z,1012.98
2018-05-13T07:30:18.355Z,1012.96
2018-05-13T07:31:18.530Z,1013.01
2018-05-13T07:32:18.424Z,1012.96
2018-05-13T07:33:18.346Z,1012.95
2018-05-13T07:34:18.361Z,1013
2018-05-13T07:35:18.202Z,1012.97
2018-05-13T07:36:18.528Z,1012.97
2018-05-13T07:37:18.310Z,1012.99
2018-05-13T07:38:18.318Z,1012.96
2018-05-13T07:39:18.328Z,1012.98
2018-05-13T07:40:18.426Z,1013.03
2018-05-13T07:41:18.212Z,1013
2018-05-13T07:42:18.265Z,1013.03
2018-05-13T07:43:18.439Z,1013.03
2018-05-13T07:44:18.135Z,1013.08
2018-05-13T07:45:18.402Z,1013.03
2018-05-13T07:46:18.484Z,1013.02
2018-05-13T07:47:18.502Z,1012.99
2018-05-13T07:48:18.266Z,1013
2018-05-13T07:49:18.336Z,1013
2018-05-13T07:50:18.437Z,1013.02
2018-05-13T07:51:18.295Z,1013.03
2018-05-13T07:52:18.427Z,1012.95
2018-05-13T07:53:18.317Z,1013.01
2018-05-13T07:54:18.176Z,1013.01
2018-05-13T07:55:18.234Z,1013.01
2018-05-13T07:56:18.381Z,1012.97
2018-05-13T07:57:18.362Z,1013.02
2018-05-13T07:58:18.197Z,1013.02
2018-05-13T07:59:18.274Z,1013.01
2018-05-13T08:00:18.262Z,1013.06
2018-05-13T08:01:18.555Z,1013.03
2018-05-13T08:02:18.668Z,1013
2018-05-13T08:03:18.214Z,1012.97
2018-05-13T08:04:18.264Z,1013
2018-05-13T08:05:18.279Z,1012.96
2018-05-13T08:06:18.486Z,1012.9
2018-05-13T08:07:18.307Z,1012.91
2018-05-13T08:08:18.371Z,1012.9
2018-05-13T08:09:18.254Z,1012.88
2018-05-13T08:10:18.432Z,1012.89
2018-05-13T08:11:18.176Z,1012.88
2018-05-13T08:12:18.324Z,1012.87
2018-05-13T08:13:18.226Z,1012.85
2018-05-13T08:14:18.240Z,1012.83
2018-05-13T08:15:18.176Z,1012.83
2018-05-13T08:16:18.230Z,1012.84
2018-05-13T08:17:18.293Z,1012.83
2018-05-13T08:18:18.296Z,1012.84
2018-05-13T08:19:18.166Z,1012.82
2018-05-13T08:20:18.646Z,1012.86
2018-05-13T08:21:18.344Z,1012.87
2018-05-13T08:22:18.356Z,1012.87
2018-05-13T08:23:18.321Z,1012.88
2018-05-13T08:24:18.241Z,1012.87
2018-05-13T08:25:18.259Z,1012.86
2018-05-13T08:26:18.377Z,1012.85
2018-05-13T08:27:18.392Z,1012.85
2018-05-13T08:28:18.308Z,1012.87
2018-05-13T08:29:18.268Z,1012.86
2018-05-13T08:30:18.308Z,1012.85
2018-05-13T08:31:18.379Z,1012.83
2018-05-13T08:32:18.191Z,1012.82
2018-05-13T08:33:18.264Z,1012.83
2018-05-13T08:34:18.449Z,1012.82
2018-05-13T08:35:18.193Z,1012.86
2018-05-13T08:36:18.455Z,1012.81
2018-05-13T08:37:18.346Z,1012.81
2018-05-13T08:38:18.388Z,1012.85
2018-05-13T08:39:18.339Z,1012.84
2018-05-13T08:40:18.310Z,1012.81
2018-05-13T08:41:18.539Z,1012.82
2018-05-13T08:42:18.276Z,1012.79
2018-05-13T08:43:18.186Z,1012.82
2018-05-13T08:44:18.091Z,1012.83
2018-05-13T08:45:18.263Z,1012.84
2018-05-13T08:46:18.276Z,1012.86
2018-05-13T08:47:18.633Z,1012.87
2018-05-13T08:48:18.210Z,1012.89
2018-05-13T08:49:18.188Z,1012.85
2018-05-13T08:50:18.371Z,1012.87
2018-05-13T08:51:18.212Z,1012.83
2018-05-13T08:52:18.246Z,1012.84
2018-05-13T08:53:18.467Z,1012.87
2018-05-13T08:54:18.574Z,1012.84
2018-05-13T08:55:18.419Z,1012.78
2018-05-13T08:56:18.429Z,1012.81
2018-05-13T08:57:18.201Z,1012.78
2018-05-13T08:58:18.393Z,1012.79
2018-05-13T08:59:18.325Z,1012.81
2018-05-13T09:00:18.356Z,1012.75
2018-05-13T09:01:18.263Z,1012.71
2018-05-13T09:02:18.119Z,1012.72
2018-05-13T09:03:18.284Z,1012.7
2018-05-13T09:04:18.317Z,1012.75
2018-05-13T09:05:18.186Z,1012.74
2018-05-13T09:06:18.211Z,1012.74
2018-05-13T09:07:18.507Z,1012.75
2018-05-13T09:08:18.371Z,1012.75
2018-05-13T09:09:18.157Z,1012.74
2018-05-13T09:10:18.241Z,1012.78
2018-05-13T09:11:18.248Z,1012.75
2018-05-13T09:12:18.225Z,1012.74
2018-05-13T09:13:18.429Z,1012.74
2018-05-13T09:14:18.640Z,1012.71
2018-05-13T09:15:18.322Z,1012.76
2018-05-13T09:16:18.290Z,1012.75
2018-05-13T09:17:18.507Z,1012.76
2018-05-13T09:18:18.211Z,1012.78
2018-05-13T09:19:18.138Z,1012.79
2018-05-13T09:20:18.552Z,1012.79
2018-05-13T09:21:18.329Z,1012.77
2018-05-13T09:22:18.155Z,1012.79
2018-05-13T09:23:18.517Z,1012.78
2018-05-13T09:24:18.170Z,1012.8
2018-05-13T09:25:18.273Z,1012.8
2018-05-13T09:26:18.278Z,1012.76
2018-05-13T09:27:18.263Z,1012.72
2018-05-13T09:28:18.284Z,1012.74
2018-05-13T09:29:18.311Z,1012.76
2018-05-13T09:30:18.259Z,1012.74
2018-05-13T09:31:18.241Z,1012.72
2018-05-13T09:32:18.232Z,1012.71
2018-05-13T09:33:18.321Z,1012.69
2018-05-13T09:34:18.326Z,1012.69
2018-05-13T09:35:18.223Z,1012.69
2018-05-13T09:36:18.245Z,1012.68
2018-05-13T09:37:18.312Z,1012.67
2018-05-13T09:38:18.389Z,1012.67
2018-05-13T09:39:18.192Z,1012.62
2018-05-13T09:40:18.353Z,1012.65
2018-05-13T09:41:18.263Z,1012.61
2018-05-13T09:42:18.315Z,1012.66
2018-05-13T09:43:18.504Z,1012.65
2018-05-13T09:44:18.275Z,1012.62
2018-05-13T09:45:18.550Z,1012.59
2018-05-13T09:46:18.560Z,1012.55
2018-05-13T09:47:18.707Z,1012.57
2018-05-13T09:48:18.336Z,1012.56
2018-05-13T09:49:18.514Z,1012.56
2018-05-13T09:50:18.305Z,1012.54
2018-05-13T09:51:28.601Z,1012.55
2018-05-13T09:52:18.340Z,1012.56
2018-05-13T09:53:18.627Z,1012.54
2018-05-13T09:54:18.609Z,1012.53
2018-05-13T09:55:18.626Z,1012.51
2018-05-13T09:56:18.204Z,1012.45
2018-05-13T09:57:18.937Z,1012.43
2018-05-13T09:58:18.334Z,1012.46
2018-05-13T09:59:18.653Z,1012.45
2018-05-13T10:00:18.428Z,1012.41
2018-05-13T10:01:18.387Z,1012.42
2018-05-13T10:02:18.682Z,1012.41
2018-05-13T10:03:18.642Z,1012.38
2018-05-13T10:04:18.437Z,1012.38
2018-05-13T10:05:18.390Z,1012.37
2018-05-13T10:06:18.391Z,1012.38
2018-05-13T10:07:18.137Z,1012.41
2018-05-13T10:08:18.706Z,1012.43
2018-05-13T10:09:18.250Z,1012.43
2018-05-13T10:10:18.313Z,1012.43
2018-05-13T10:11:18.413Z,1012.43
2018-05-13T10:12:18.064Z,1012.45
2018-05-13T10:13:18.684Z,1012.41
2018-05-13T10:14:18.214Z,1012.44
2018-05-13T10:15:18.765Z,1012.45
2018-05-13T10:16:18.097Z,1012.43
2018-05-13T10:17:18.545Z,1012.47
2018-05-13T10:18:18.235Z,1012.45
2018-05-13T10:19:18.345Z,1012.46
2018-05-13T10:20:18.304Z,1012.48
2018-05-13T10:21:18.579Z,1012.51
2018-05-13T10:22:18.423Z,1012.52
2018-05-13T10:23:18.088Z,1012.55
2018-05-13T10:24:18.320Z,1012.53
2018-05-13T10:25:18.255Z,1012.55
2018-05-13T10:26:18.257Z,1012.56
2018-05-13T10:27:18.560Z,1012.57
2018-05-13T10:28:18.490Z,1012.57
2018-05-13T10:29:18.337Z,1012.56
2018-05-13T10:30:18.229Z,1012.58
2018-05-13T10:31:18.330Z,1012.57
2018-05-13T10:32:18.215Z,1012.62
2018-05-13T10:33:18.168Z,1012.57
2018-05-13T10:34:18.150Z,1012.58
2018-05-13T10:35:18.188Z,1012.55
2018-05-13T10:36:18.389Z,1012.59
2018-05-13T10:37:18.320Z,1012.55
2018-05-13T10:38:18.433Z,1012.55
2018-05-13T10:39:18.164Z,1012.55
2018-05-13T10:40:18.385Z,1012.54
2018-05-13T10:41:18.391Z,1012.51
2018-05-13T10:42:18.398Z,1012.53
2018-05-13T10:43:18.158Z,1012.56
2018-05-13T10:44:18.249Z,1012.52
2018-05-13T10:45:18.315Z,1012.52
2018-05-13T10:46:18.210Z,1012.55
2018-05-13T10:47:18.300Z,1012.59
2018-05-13T10:48:18.448Z,1012.64
2018-05-13T10:49:18.112Z,1012.64
2018-05-13T10:50:18.203Z,1012.6
2018-05-13T10:51:18.394Z,1012.65
2018-05-13T10:52:18.539Z,1012.6
2018-05-13T10:53:18.285Z,1012.66
2018-05-13T10:54:18.165Z,1012.64
2018-05-13T10:55:18.219Z,1012.61
2018-05-13T10:56:18.300Z,1012.64
2018-05-13T10:57:18.408Z,1012.63
2018-05-13T10:58:18.137Z,1012.64
2018-05-13T10:59:18.171Z,1012.64
2018-05-13T11:00:18.067Z,1012.64
2018-05-13T11:01:18.248Z,1012.61
2018-05-13T11:02:18.139Z,1012.64
2018-05-13T11:03:18.435Z,1012.62
2018-05-13T11:04:18.198Z,1012.65
2018-05-13T11:05:18.225Z,1012.68
2018-05-13T11:06:18.164Z,1012.69
2018-05-13T11:07:18.239Z,1012.69
2018-05-13T11:08:18.477Z,1012.64
2018-05-13T11:09:18.068Z,1012.62
2018-05-13T11:10:18.577Z,1012.65
2018-05-13T11:11:18.233Z,1012.65
2018-05-13T11:12:18.237Z,1012.67
2018-05-13T11:13:18.189Z,1012.62
2018-05-13T11:14:18.250Z,1012.63
2018-05-13T11:15:18.191Z,1012.67
2018-05-13T11:16:18.390Z,1012.64
2018-05-13T11:17:18.117Z,1012.65
2018-05-13T11:18:18.357Z,1012.66
2018-05-13T11:19:18.298Z,1012.61
2018-05-13T11:20:18.393Z,1012.68
2018-05-13T11:21:18.135Z,1012.63
2018-05-13T11:22:18.200Z,1012.66
2018-05-13T11:23:18.123Z,1012.62
2018-05-13T11:24:18.072Z,1012.62
2018-05-13T11:25:18.213Z,1012.61
2018-05-13T11:26:18.219Z,1012.58
2018-05-13T11:27:18.234Z,1012.64
2018-05-13T11:28:18.285Z,1012.62
2018-05-13T11:29:18.230Z,1012.64
2018-05-13T11:30:18.254Z,1012.6
2018-05-13T11:31:18.283Z,1012.59
2018-05-13T11:32:18.212Z,1012.58
2018-05-13T11:33:18.191Z,1012.58
2018-05-13T11:34:18.152Z,1012.57
2018-05-13T11:35:18.337Z,1012.54
2018-05-13T11:36:18.152Z,1012.51
2018-05-13T11:37:18.326Z,1012.54
2018-05-13T11:38:18.233Z,1012.53
2018-05-13T11:39:18.163Z,1012.52
2018-05-13T11:40:18.215Z,1012.53
2018-05-13T11:41:18.299Z,1012.52
2018-05-13T11:42:18.268Z,1012.53
2018-05-13T11:43:18.217Z,1012.56
2018-05-13T11:44:18.339Z,1012.5
2018-05-13T11:45:18.200Z,1012.49
2018-05-13T11:46:18.085Z,1012.55
2018-05-13T11:47:18.235Z,1012.51
2018-05-13T11:48:18.860Z,1012.47
2018-05-13T11:49:18.366Z,1012.5
2018-05-13T11:50:18.515Z,1012.47
2018-05-13T11:51:18.374Z,1012.48
2018-05-13T11:52:18.386Z,1012.49
2018-05-13T11:53:18.202Z,1012.54
2018-05-13T11:54:18.366Z,1012.54
2018-05-13T11:55:18.154Z,1012.52
2018-05-13T11:56:18.007Z,1012.54
2018-05-13T11:57:18.387Z,1012.54
2018-05-13T11:58:18.342Z,1012.56
2018-05-13T11:59:18.153Z,1012.54
2018-05-13T12:00:18.226Z,1012.58
2018-05-13T12:01:18.205Z,1012.55
2018-05-13T12:02:18.278Z,1012.48
2018-05-13T12:03:18.157Z,1012.49
2018-05-13T12:04:18.162Z,1012.42
2018-05-13T12:05:18.135Z,1012.37
2018-05-13T12:06:18.217Z,1012.35
2018-05-13T12:07:18.132Z,1012.36